Time;durP1;ratioP1;P1;durP2;ratioP2;P2;SDS_P1;SDS_P2;PMS_P1;PMS_P2;Temp;Humidity;BMP_temperature;BMP_pressure;BME280_temperature;BME280_humidity;BME280_pressure;Samples;Min_cycle;Max_cycle;Signal;HPM_P1;HPM_P2
2022/10/19 00:01:18;;;;;;;7.10;6.22;;;;;;;7.54;61.08;95525.03;5118613;28;20211;-67
2022/10/19 00:03:48;;;;;;;7.43;6.63;;;;;;;7.54;61.08;95527.78;5118394;28;20187;-67
2022/10/19 00:06:17;;;;;;;7.80;6.18;;;;;;;7.50;61.22;95526.81;5118157;28;20189;-67
2022/10/19 00:08:44;;;;;;;7.93;6.57;;;;;;;7.44;61.19;95528.09;5118126;28;20195;-67
2022/10/19 00:11:12;;;;;;;7.65;7.00;;;;;;;7.40;61.20;95530.66;5118373;28;20194;-68
2022/10/19 00:13:39;;;;;;;6.95;6.35;;;;;;;7.37;61.56;95533.25;5118255;28;20202;-68
2022/10/19 00:16:11;;;;;;;7.25;6.43;;;;;;;7.34;61.33;95529.22;5118072;28;20209;-67
2022/10/19 00:18:38;;;;;;;7.88;7.13;;;;;;;7.35;61.43;95517.13;5136303;28;20186;-67
2022/10/19 00:21:08;;;;;;;7.57;6.88;;;;;;;7.34;61.90;95514.69;5137139;27;20195;-67
2022/10/19 00:23:35;;;;;;;6.80;6.20;;;;;;;7.36;61.67;95505.00;5140268;27;20183;-67
2022/10/19 00:26:02;;;;;;;6.80;6.20;;;;;;;7.32;61.40;95504.03;5122140;27;20191;-67
2022/10/19 00:28:30;;;;;;;6.70;6.10;;;;;;;7.28;61.60;95497.56;5140130;27;20194;-67
2022/10/19 00:30:57;;;;;;;7.25;6.50;;;;;;;7.26;61.36;95496.28;5122317;27;20534;-67
2022/10/19 00:33:25;;;;;;;6.38;5.78;;;;;;;7.16;61.42;95492.72;5122206;27;20206;-67
2022/10/19 00:35:52;;;;;;;6.65;6.05;;;;;;;7.16;61.67;95495.47;5122090;27;20631;-67
2022/10/19 00:38:21;;;;;;;6.63;5.90;;;;;;;7.15;61.96;95488.38;5121852;27;20226;-67
2022/10/19 00:40:48;;;;;;;6.50;5.40;;;;;;;7.17;61.61;95479.81;5140042;27;20203;-67
2022/10/19 00:43:16;;;;;;;6.43;5.80;;;;;;;7.16;61.50;95479.00;5122070;27;20198;-67
2022/10/19 00:45:43;;;;;;;6.80;6.20;;;;;;;7.17;61.59;95475.13;5139543;27;20633;-67
2022/10/19 00:48:11;;;;;;;6.53;5.93;;;;;;;7.18;61.28;95481.41;5139475;27;20515;-67
2022/10/19 00:50:39;;;;;;;7.20;6.50;;;;;;;7.10;61.26;95474.00;5139355;27;20538;-67
2022/10/19 00:53:06;;;;;;;5.93;5.35;;;;;;;7.06;61.08;95464.78;5121720;27;20198;-67
2022/10/19 00:55:34;;;;;;;5.80;5.30;;;;;;;7.05;61.00;95469.47;5121295;27;20226;-67
2022/10/19 00:58:03;;;;;;;5.95;5.45;;;;;;;7.05;60.57;95464.00;5139579;27;20194;-68
2022/10/19 01:00:30;;;;;;;7.10;6.30;;;;;;;7.02;61.35;95463.81;5121713;27;20202;-67
2022/10/19 01:02:57;;;;;;;7.88;6.13;;;;;;;6.98;61.60;95458.19;5121706;27;20191;-67
2022/10/19 01:05:24;;;;;;;7.35;6.57;;;;;;;6.99;61.51;95455.09;5139604;27;20272;-67
2022/10/19 01:07:51;;;;;;;7.45;6.65;;;;;;;6.95;61.45;95448.66;5121504;27;20207;-67
2022/10/19 01:10:22;;;;;;;7.25;5.60;;;;;;;6.92;61.64;95448.47;5121181;27;20198;-67
2022/10/19 01:13:02;;;;;;;7.18;6.40;;;;;;;6.92;61.43;95438.31;5139155;27;20171;-67
2022/10/19 01:15:32;;;;;;;7.28;6.57;;;;;;;6.92;61.60;95435.56;5121310;27;20206;-67
2022/10/19 01:18:05;;;;;;;7.55;6.75;;;;;;;6.87;61.81;95437.69;5121143;27;20202;-67
2022/10/19 01:21:08;;;;;;;7.22;6.63;;;;;;;6.84;61.50;95428.16;5139325;27;20189;-67
2022/10/19 01:24:06;;;;;;;7.05;6.38;;;;;;;6.79;61.51;95428.31;5117788;27;20205;-68
2022/10/19 01:26:56;;;;;;;7.50;6.80;;;;;;;6.82;61.61;95432.31;5139286;27;20191;-67
2022/10/19 01:29:34;;;;;;;7.43;6.43;;;;;;;6.78;61.44;95423.13;5121239;27;20195;-67
2022/10/19 01:32:07;;;;;;;8.43;6.75;;;;;;;6.79;61.60;95430.22;5138272;27;20194;-67
2022/10/19 01:34:40;;;;;;;7.05;6.35;;;;;;;6.79;61.41;95422.00;5138621;27;20191;-67
2022/10/19 01:37:15;;;;;;;6.97;6.28;;;;;;;6.72;61.51;95417.81;5121230;27;20543;-67
2022/10/19 01:39:45;;;;;;;6.75;6.10;;;;;;;6.71;61.83;95418.91;5139133;27;20187;-67
2022/10/19 01:42:14;;;;;;;6.80;6.13;;;;;;;6.70;62.00;95419.25;5138797;27;20203;-67
2022/10/19 01:44:44;;;;;;;6.53;5.82;;;;;;;6.69;61.49;95414.91;5120824;27;20206;-67
2022/10/19 01:47:16;;;;;;;6.50;5.83;;;;;;;6.64;61.32;95410.34;5138790;27;20187;-67
2022/10/19 01:49:47;;;;;;;6.63;5.97;;;;;;;6.63;61.52;95413.44;5121003;27;20206;-67
2022/10/19 01:52:16;;;;;;;6.70;5.80;;;;;;;6.60;61.25;95411.31;5138677;27;20201;-68
2022/10/19 01:54:45;;;;;;;7.32;6.05;;;;;;;6.53;61.45;95410.97;5138558;27;20246;-67
2022/10/19 01:57:14;;;;;;;6.85;6.15;;;;;;;6.50;61.97;95413.25;5138701;27;20191;-67
2022/10/19 01:59:41;;;;;;;6.85;6.20;;;;;;;6.50;61.81;95401.47;5138026;27;20222;-68
2022/10/19 02:02:09;;;;;;;6.45;5.85;;;;;;;6.45;61.99;95401.63;5120260;27;20226;-68
2022/10/19 02:04:38;;;;;;;6.65;6.03;;;;;;;6.44;62.26;95408.22;5120723;27;20199;-67
2022/10/19 02:07:06;;;;;;;6.90;5.72;;;;;;;6.40;61.91;95404.50;5138233;27;20202;-67
2022/10/19 02:09:33;;;;;;;7.93;5.95;;;;;;;6.38;62.01;95399.34;5138562;27;20186;-67
2022/10/19 02:12:03;;;;;;;6.50;5.90;;;;;;;6.39;61.91;95400.13;5103152;27;20198;-68
2022/10/19 02:14:34;;;;;;;7.75;6.13;;;;;;;6.32;61.90;95397.88;5120516;27;20195;-67
2022/10/19 02:17:04;;;;;;;8.52;6.60;;;;;;;6.35;62.12;95399.16;5137721;27;20240;-68
2022/10/19 02:19:30;;;;;;;8.75;6.03;;;;;;;6.33;62.08;95394.00;5120079;27;20199;-67
2022/10/19 02:21:59;;;;;;;8.93;6.15;;;;;;;6.27;62.04;95392.53;5119980;27;20218;-67
2022/10/19 02:24:25;;;;;;;7.40;6.03;;;;;;;6.18;61.89;95389.78;5119879;27;20206;-67
2022/10/19 02:26:52;;;;;;;6.20;5.60;;;;;;;6.14;62.08;95388.00;5138191;27;20199;-67
2022/10/19 02:29:19;;;;;;;6.90;5.93;;;;;;;6.11;62.22;95394.91;5138035;27;20187;-67
2022/10/19 02:31:46;;;;;;;8.63;6.00;;;;;;;6.12;62.67;95396.50;5138032;27;20192;-67
2022/10/19 02:34:13;;;;;;;7.00;5.75;;;;;;;6.13;62.33;95389.91;5137465;27;20180;-68
2022/10/19 02:36:40;;;;;;;9.05;6.55;;;;;;;6.13;62.43;95391.84;5137781;27;20188;-68
2022/10/19 02:39:09;;;;;;;7.45;6.13;;;;;;;6.08;62.30;95392.00;5137324;27;20514;-68
2022/10/19 02:41:38;;;;;;;7.75;6.95;;;;;;;6.10;62.19;95400.69;5137489;27;20199;-68
2022/10/19 02:44:08;;;;;;;8.13;7.28;;;;;;;6.11;62.29;95394.91;5137169;27;20187;-68
2022/10/19 02:46:38;;;;;;;6.85;6.10;;;;;;;6.13;62.02;95394.56;5120004;27;20195;-67
2022/10/19 02:49:07;;;;;;;7.95;6.75;;;;;;;6.12;62.49;95393.78;5137364;27;20191;-67
2022/10/19 02:51:36;;;;;;;7.40;6.65;;;;;;;6.11;62.52;95397.66;5119246;27;20191;-67
2022/10/19 02:54:04;;;;;;;7.43;6.40;;;;;;;6.11;62.28;95394.91;5119226;27;20230;-68
2022/10/19 02:56:32;;;;;;;8.98;6.07;;;;;;;6.11;61.93;95394.09;5119618;27;20190;-68
2022/10/19 02:58:59;;;;;;;6.90;6.30;;;;;;;5.99;61.89;95395.50;5119307;27;20207;-67
2022/10/19 03:01:26;;;;;;;9.15;6.80;;;;;;;5.92;62.40;95399.78;5119543;27;20203;-67
2022/10/19 03:03:53;;;;;;;6.72;6.10;;;;;;;5.89;62.67;95398.50;5119213;27;20195;-67
2022/10/19 03:06:20;;;;;;;8.40;6.88;;;;;;;5.89;62.48;95392.22;5119106;27;20198;-67
2022/10/19 03:08:47;;;;;;;7.95;6.70;;;;;;;5.86;62.34;95392.84;5119143;27;20194;-68
2022/10/19 03:11:13;;;;;;;9.68;6.45;;;;;;;5.83;62.54;95393.47;5137368;27;20259;-67
2022/10/19 03:13:42;;;;;;;11.23;5.97;;;;;;;5.88;62.84;95399.63;5137077;27;20187;-67
2022/10/19 03:16:11;;;;;;;8.93;6.47;;;;;;;5.93;62.68;95398.69;5136888;27;20233;-67
2022/10/19 03:18:38;;;;;;;8.15;6.88;;;;;;;5.94;62.64;95400.31;5119185;27;20209;-67
2022/10/19 03:21:06;;;;;;;7.85;6.32;;;;;;;5.93;62.31;95394.03;5118998;27;20191;-67
2022/10/19 03:23:33;;;;;;;7.88;6.45;;;;;;;5.94;62.69;95408.53;5136806;27;20199;-66
2022/10/19 03:26:00;;;;;;;7.22;6.15;;;;;;;5.94;62.29;95403.03;5136650;27;20186;-67
2022/10/19 03:28:26;;;;;;;7.78;6.68;;;;;;;5.90;62.64;95391.09;5136650;27;20183;-66
2022/10/19 03:30:54;;;;;;;8.27;6.63;;;;;;;5.89;62.64;95390.28;5118979;27;20219;-67
2022/10/19 03:33:21;;;;;;;7.18;6.50;;;;;;;5.91;62.61;95389.94;5118696;27;20520;-67
2022/10/19 03:35:48;;;;;;;10.60;7.65;;;;;;;5.82;62.31;95381.72;5128130;27;20199;-67
2022/10/19 03:38:15;;;;;;;8.88;7.47;;;;;;;5.76;62.47;95383.75;5118565;27;20195;-67
2022/10/19 03:40:42;;;;;;;9.88;7.30;;;;;;;5.75;62.57;95384.88;5136529;27;20183;-66
2022/10/19 03:43:09;;;;;;;8.68;7.28;;;;;;;5.78;62.67;95386.19;5136397;27;20214;-67
2022/10/19 03:45:35;;;;;;;11.68;7.28;;;;;;;5.74;62.56;95383.28;5118511;27;20199;-68
2022/10/19 03:48:04;;;;;;;9.10;7.13;;;;;;;5.72;62.53;95379.25;5136054;27;20187;-69
2022/10/19 03:50:31;;;;;;;9.85;8.20;;;;;;;5.70;62.92;95385.03;5136433;27;20183;-67
2022/10/19 03:52:57;;;;;;;11.45;8.65;;;;;;;5.66;62.72;95375.81;5118240;27;20194;-67
2022/10/19 03:55:24;;;;;;;9.65;8.10;;;;;;;5.65;63.37;95376.94;5135251;27;20700;-67
2022/10/19 03:57:51;;;;;;;10.93;8.52;;;;;;;5.68;62.57;95378.25;5136351;27;20187;-67
2022/10/19 04:00:18;;;;;;;10.07;7.78;;;;;;;5.71;62.94;95378.44;5136508;27;20199;-67
2022/10/19 04:02:45;;;;;;;13.65;8.85;;;;;;;5.72;62.58;95379.25;5118094;28;20214;-67
2022/10/19 04:05:13;;;;;;;14.15;9.45;;;;;;;5.70;62.59;95381.47;5118465;28;20203;-67
2022/10/19 04:07:40;;;;;;;13.60;8.45;;;;;;;5.64;62.85;95377.28;5135962;28;20607;-68
2022/10/19 04:10:07;;;;;;;13.02;9.10;;;;;;;5.61;62.49;95378.69;5136092;28;20183;-67
2022/10/19 04:12:34;;;;;;;13.20;8.88;;;;;;;5.54;62.85;95376.41;5118071;28;20199;-67
2022/10/19 04:15:01;;;;;;;11.02;8.75;;;;;;;5.55;62.89;95369.00;5135855;28;20485;-67
2022/10/19 04:17:27;;;;;;;13.40;9.30;;;;;;;5.55;63.17;95369.00;5118145;28;20194;-67
2022/10/19 04:19:54;;;;;;;11.82;9.95;;;;;;;5.54;63.44;95373.66;5117873;28;20227;-67
2022/10/19 04:22:22;;;;;;;17.80;11.48;;;;;;;5.55;63.21;95367.09;5117703;28;20233;-67
2022/10/19 04:24:49;;;;;;;16.83;11.70;;;;;;;5.54;63.22;95361.91;5136135;28;20278;-67
2022/10/19 04:27:16;;;;;;;20.38;13.73;;;;;;;5.49;63.08;95360.13;5136169;28;20180;-67
2022/10/19 04:29:43;;;;;;;17.58;14.18;;;;;;;5.46;63.35;95349.00;5118122;28;20195;-67
2022/10/19 04:32:10;;;;;;;20.02;15.00;;;;;;;5.47;63.42;95356.88;5118165;28;20195;-67
2022/10/19 04:34:37;;;;;;;20.92;15.20;;;;;;;5.50;63.22;95359.00;5118134;28;20203;-67
2022/10/19 04:37:03;;;;;;;21.98;14.73;;;;;;;5.47;63.11;95356.88;5135596;28;20675;-67
2022/10/19 04:39:32;;;;;;;21.02;14.27;;;;;;;5.46;63.29;95349.81;5118104;28;20198;-67
2022/10/19 04:41:58;;;;;;;24.95;15.35;;;;;;;5.47;63.28;95351.41;5135812;28;20214;-67
2022/10/19 04:44:25;;;;;;;23.80;15.07;;;;;;;5.49;62.92;95356.59;5117796;28;20196;-67
2022/10/19 04:46:52;;;;;;;23.00;14.20;;;;;;;5.43;62.97;95352.38;5136026;28;20183;-67
2022/10/19 04:49:19;;;;;;;19.00;13.20;;;;;;;5.37;62.98;95359.88;5117799;28;20191;-67
2022/10/19 04:51:46;;;;;;;18.83;13.10;;;;;;;5.34;63.41;95354.22;5135720;28;20183;-67
2022/10/19 04:54:12;;;;;;;22.10;14.52;;;;;;;5.33;63.62;95358.91;5135061;28;20243;-67
2022/10/19 04:56:41;;;;;;;25.42;14.75;;;;;;;5.35;63.75;95361.34;5135495;28;20175;-67
2022/10/19 04:59:07;;;;;;;25.65;15.77;;;;;;;5.36;63.39;95363.75;5117535;28;20203;-68
2022/10/19 05:01:34;;;;;;;27.73;15.40;;;;;;;5.37;63.43;95367.28;5135646;28;20188;-67
2022/10/19 05:04:02;;;;;;;24.27;16.17;;;;;;;5.39;63.44;95365.84;5117572;28;20214;-67
2022/10/19 05:06:30;;;;;;;25.02;15.35;;;;;;;5.38;63.17;95363.44;5117669;27;20215;-67
2022/10/19 05:08:57;;;;;;;27.15;14.65;;;;;;;5.39;63.53;95360.38;5139332;27;20513;-68
2022/10/19 05:11:26;;;;;;;28.00;15.50;;;;;;;5.37;63.74;95354.41;5121270;27;20199;-68
2022/10/19 05:13:55;;;;;;;26.33;14.55;;;;;;;5.36;63.53;95354.72;5121344;27;20184;-68
2022/10/19 05:16:23;;;;;;;18.92;14.48;;;;;;;5.35;63.55;95353.13;5139018;27;20194;-68
2022/10/19 05:18:50;;;;;;;23.80;14.65;;;;;;;5.38;64.01;95349.78;5139254;27;20206;-68
2022/10/19 05:21:19;;;;;;;23.67;14.88;;;;;;;5.44;63.81;95356.72;5139146;27;20190;-67
2022/10/19 05:23:46;;;;;;;28.83;16.25;;;;;;;5.47;63.84;95350.63;5139088;27;20211;-68
2022/10/19 05:26:14;;;;;;;28.60;15.82;;;;;;;5.42;63.73;95356.22;5138989;27;20213;-68
2022/10/19 05:28:41;;;;;;;33.60;15.63;;;;;;;5.46;63.53;95349.81;5120818;27;20251;-68
2022/10/19 05:31:12;;;;;;;27.30;17.60;;;;;;;5.46;63.45;95366.22;5138951;27;20195;-67
2022/10/19 05:33:39;;;;;;;27.20;18.27;;;;;;;5.48;63.66;95361.25;5120734;27;20195;-68
2022/10/19 05:36:12;;;;;;;26.73;20.15;;;;;;;5.48;63.51;95360.44;5120947;27;20206;-68
2022/10/19 05:38:38;;;;;;;29.08;20.45;;;;;;;5.49;63.90;95365.59;5121057;27;20195;-68
2022/10/19 05:41:05;;;;;;;28.38;20.08;;;;;;;5.49;64.05;95362.06;5120974;27;20214;-67
2022/10/19 05:43:32;;;;;;;26.70;19.65;;;;;;;5.55;64.09;95353.41;5120999;27;20207;-68
2022/10/19 05:46:03;;;;;;;27.20;19.65;;;;;;;5.64;64.37;95364.41;5138778;27;20179;-67
2022/10/19 05:48:33;;;;;;;29.88;20.50;;;;;;;5.70;64.05;95360.41;5138740;27;20188;-68
2022/10/19 05:51:00;;;;;;;27.20;19.70;;;;;;;5.73;64.09;95361.69;5138692;27;20179;-67
2022/10/19 05:53:26;;;;;;;27.27;20.25;;;;;;;5.77;64.01;95360.75;5118303;27;20532;-67
2022/10/19 05:55:53;;;;;;;29.08;20.90;;;;;;;5.83;64.66;95363.34;5100043;28;20650;-67
2022/10/19 05:58:20;;;;;;;25.13;20.40;;;;;;;5.91;64.43;95363.38;5099609;28;20184;-67
2022/10/19 06:00:51;;;;;;;25.88;18.10;;;;;;;6.00;64.21;95361.53;5100076;28;20191;-67
2022/10/19 06:03:18;;;;;;;23.88;19.35;;;;;;;6.08;64.87;95361.88;5099455;28;20223;-67
2022/10/19 06:05:46;;;;;;;18.67;15.32;;;;;;;6.13;65.16;95368.00;5099804;28;20207;-67
2022/10/19 06:08:13;;;;;;;16.52;14.80;;;;;;;6.17;65.21;95366.25;5117321;28;20588;-67
2022/10/19 06:10:40;;;;;;;19.83;15.60;;;;;;;6.23;64.96;95372.38;5100152;28;20204;-67
2022/10/19 06:13:07;;;;;;;21.65;17.27;;;;;;;6.29;64.82;95371.13;5117232;28;20183;-67
2022/10/19 06:15:35;;;;;;;21.30;18.15;;;;;;;6.35;65.31;95372.56;5099771;28;20203;-67
2022/10/19 06:18:03;;;;;;;23.05;16.77;;;;;;;6.42;65.40;95374.84;5117404;28;20245;-67
2022/10/19 06:20:30;;;;;;;21.35;17.30;;;;;;;6.47;65.21;95383.75;5099802;28;20618;-67
2022/10/19 06:22:58;;;;;;;22.42;19.55;;;;;;;6.54;65.01;95380.53;5099490;28;20215;-67
2022/10/19 06:25:25;;;;;;;25.27;22.50;;;;;;;6.63;65.01;95386.03;5099784;28;20188;-67
2022/10/19 06:27:52;;;;;;;28.98;24.50;;;;;;;6.70;64.80;95386.34;5099478;28;20207;-67
2022/10/19 06:30:18;;;;;;;33.00;28.38;;;;;;;6.78;64.67;95388.28;5116726;28;20196;-67
2022/10/19 06:32:45;;;;;;;37.45;32.20;;;;;;;6.87;64.92;95382.84;5099196;28;20517;-67
2022/10/19 06:35:12;;;;;;;38.80;33.35;;;;;;;6.95;64.27;95387.50;5117127;28;20180;-67
2022/10/19 06:37:39;;;;;;;40.97;32.45;;;;;;;7.03;64.24;95386.69;5099110;28;20608;-67
2022/10/19 06:40:09;;;;;;;38.47;30.52;;;;;;;7.10;64.12;95381.53;5098714;28;20204;-67
2022/10/19 06:42:37;;;;;;;32.05;28.60;;;;;;;7.18;63.60;95382.66;5116892;28;20203;-67
2022/10/19 06:45:05;;;;;;;29.77;26.52;;;;;;;7.28;63.71;95384.28;5099254;28;20202;-67
2022/10/19 06:47:32;;;;;;;27.63;24.75;;;;;;;7.40;63.45;95376.19;5099183;28;20199;-67
2022/10/19 06:49:59;;;;;;;25.92;23.15;;;;;;;7.51;63.10;95369.22;5099027;28;20195;-67
2022/10/19 06:52:25;;;;;;;24.15;20.67;;;;;;;7.60;63.20;95370.03;5116818;28;20191;-67
2022/10/19 06:54:52;;;;;;;23.40;19.88;;;;;;;7.70;63.08;95368.88;5116789;28;20235;-67
2022/10/19 06:57:20;;;;;;;22.00;19.42;;;;;;;7.78;62.40;95361.75;5099085;28;20191;-67
2022/10/19 06:59:47;;;;;;;24.38;20.17;;;;;;;7.84;62.25;95358.50;5098818;28;20219;-67
2022/10/19 07:02:15;;;;;;;25.25;21.13;;;;;;;7.94;61.98;95357.31;5098536;28;20203;-68
2022/10/19 07:04:42;;;;;;;26.52;21.27;;;;;;;8.04;62.00;95347.91;5116523;28;20210;-68
2022/10/19 07:07:08;;;;;;;23.88;20.48;;;;;;;8.15;61.58;95351.91;5098829;28;20214;-68
2022/10/19 07:09:35;;;;;;;21.75;19.42;;;;;;;8.25;61.41;95346.03;5116861;28;20187;-68
2022/10/19 07:12:02;;;;;;;24.60;20.77;;;;;;;8.35;61.01;95351.16;5116561;28;20179;-68
2022/10/19 07:14:37;;;;;;;24.23;20.27;;;;;;;8.44;60.79;95342.88;5098914;28;20199;-67
2022/10/19 07:17:04;;;;;;;23.27;20.90;;;;;;;8.54;60.69;95348.00;5098353;28;20611;-68
2022/10/19 07:19:31;;;;;;;24.58;21.73;;;;;;;8.67;60.67;95354.38;5116321;28;20192;-67
2022/10/19 07:21:58;;;;;;;23.15;20.67;;;;;;;8.80;60.77;95349.78;5116356;28;20195;-67
2022/10/19 07:24:25;;;;;;;24.77;21.35;;;;;;;8.95;60.68;95349.16;5098332;28;20216;-68
2022/10/19 07:26:51;;;;;;;27.30;21.80;;;;;;;9.07;60.79;95346.47;5115853;28;20604;-68
2022/10/19 07:29:18;;;;;;;22.77;19.73;;;;;;;9.22;60.16;95342.28;5116184;28;20199;-67
2022/10/19 07:31:46;;;;;;;23.40;18.67;;;;;;;9.37;59.94;95344.44;5097338;28;20192;-67
2022/10/19 07:34:15;;;;;;;20.83;18.10;;;;;;;9.50;58.45;95336.22;5098013;28;20196;-67
2022/10/19 07:36:44;;;;;;;19.40;16.67;;;;;;;9.60;59.46;95336.59;5098714;28;20326;-68
2022/10/19 07:39:12;;;;;;;24.60;18.83;;;;;;;9.75;59.23;95331.56;5115841;28;20187;-68
2022/10/19 07:41:39;;;;;;;27.25;19.80;;;;;;;9.93;58.59;95332.19;5098124;28;20183;-67
2022/10/19 07:44:06;;;;;;;25.52;21.25;;;;;;;10.05;58.41;95324.72;5097949;28;20311;-67
2022/10/19 07:46:35;;;;;;;11.10;9.88;;;;;;;10.18;57.21;95313.72;5116186;28;20184;-68
2022/10/19 07:49:06;;;;;;;10.65;9.60;;;;;;;10.26;55.34;95312.81;5116207;28;20183;-68
2022/10/19 07:51:33;;;;;;;19.40;11.70;;;;;;;10.41;56.89;95308.56;5115655;28;20195;-67
2022/10/19 07:54:00;;;;;;;14.18;10.57;;;;;;;10.54;56.66;95302.69;5103817;28;20665;-67
2022/10/19 07:56:28;;;;;;;13.27;10.35;;;;;;;10.70;56.24;95300.03;5136353;27;20194;-68
2022/10/19 07:58:58;;;;;;;10.23;9.15;;;;;;;10.80;55.27;95298.75;5136750;27;20210;-68
2022/10/19 08:01:26;;;;;;;10.50;9.40;;;;;;;10.99;54.58;95300.88;5118568;28;20202;-68
2022/10/19 08:03:54;;;;;;;9.95;8.70;;;;;;;11.11;54.20;95300.03;5118390;28;20203;-67
2022/10/19 08:06:23;;;;;;;12.82;9.45;;;;;;;11.23;54.27;95294.47;5118438;28;20665;-67
2022/10/19 08:08:50;;;;;;;12.05;9.43;;;;;;;11.35;54.89;95288.88;5118735;28;20623;-67
2022/10/19 08:11:19;;;;;;;12.07;9.45;;;;;;;11.48;54.26;95292.41;5136551;28;20184;-68
2022/10/19 08:13:45;;;;;;;11.45;8.95;;;;;;;11.59;54.04;95285.19;5118303;28;20545;-67
2022/10/19 08:16:24;;;;;;;12.93;9.68;;;;;;;11.76;54.20;95284.88;5118086;28;20202;-67
2022/10/19 08:18:52;;;;;;;9.93;8.90;;;;;;;11.91;52.69;95290.75;5135818;28;20187;-67
2022/10/19 08:21:19;;;;;;;10.85;9.48;;;;;;;12.03;51.74;95287.94;5135894;28;20176;-67
2022/10/19 08:23:48;;;;;;;12.15;9.73;;;;;;;12.19;53.11;95279.63;5135944;28;20624;-67
2022/10/19 08:26:14;;;;;;;10.95;9.85;;;;;;;12.35;51.97;95279.63;5135847;28;20186;-67
2022/10/19 08:28:41;;;;;;;12.55;10.07;;;;;;;12.50;51.57;95281.56;5135741;28;20193;-68
2022/10/19 08:31:13;;;;;;;12.18;9.75;;;;;;;12.69;51.45;95278.81;5136038;28;20179;-67
2022/10/19 08:33:40;;;;;;;10.43;7.43;;;;;;;12.83;49.45;95278.34;5135862;28;20190;-67
2022/10/19 08:36:08;;;;;;;9.70;8.00;;;;;;;12.91;49.24;95273.75;5117922;28;20195;-68
2022/10/19 08:38:36;;;;;;;12.27;7.88;;;;;;;13.05;49.45;95270.50;5118654;28;20203;-67
2022/10/19 08:41:17;;;;;;;9.15;6.13;;;;;;;13.12;48.25;95273.41;5135651;28;20591;-67
2022/10/19 08:43:56;;;;;;;6.35;5.20;;;;;;;13.27;47.36;95267.03;5139896;27;20203;-67
2022/10/19 08:46:25;;;;;;;5.85;5.25;;;;;;;13.41;46.73;95267.31;5139722;27;20215;-67
2022/10/19 08:48:52;;;;;;;6.13;4.40;;;;;;;13.53;46.37;95268.31;5122244;27;20191;-67
2022/10/19 08:51:19;;;;;;;5.45;4.15;;;;;;;13.60;46.77;95258.16;5140095;27;20179;-67
2022/10/19 08:53:52;;;;;;;5.47;4.70;;;;;;;13.80;46.48;95258.09;5135652;27;20242;-67
2022/10/19 08:56:27;;;;;;;5.70;4.47;;;;;;;13.94;47.01;95261.94;5118872;28;20236;-67
2022/10/19 08:59:01;;;;;;;5.13;4.55;;;;;;;14.09;45.90;95262.16;5101563;28;20297;-67
2022/10/19 09:01:35;;;;;;;5.57;4.13;;;;;;;14.12;45.84;95262.22;5119319;28;20187;-68
2022/10/19 09:04:04;;;;;;;7.38;4.50;;;;;;;14.17;45.94;95250.84;5118696;28;20208;-68
2022/10/19 09:06:37;;;;;;;5.10;4.47;;;;;;;14.28;45.93;95239.91;5101367;28;20207;-67
2022/10/19 09:09:05;;;;;;;7.38;4.90;;;;;;;14.41;45.08;95238.50;5101304;28;20199;-67
2022/10/19 09:11:37;;;;;;;6.38;5.13;;;;;;;14.51;46.23;95239.88;5118846;28;20200;-67
2022/10/19 09:14:12;;;;;;;7.47;4.35;;;;;;;14.67;46.45;95245.28;5118627;28;20184;-67
2022/10/19 09:16:39;;;;;;;5.88;4.40;;;;;;;14.86;45.27;95244.34;5118312;28;20230;-67
2022/10/19 09:19:13;;;;;;;5.07;4.40;;;;;;;14.99;44.72;95242.91;5100995;28;20203;-67
2022/10/19 09:21:43;;;;;;;6.07;4.07;;;;;;;15.17;43.07;95246.72;5118371;28;20223;-67
2022/10/19 09:24:16;;;;;;;5.28;3.92;;;;;;;15.26;43.80;95251.22;5118554;28;20204;-67
2022/10/19 09:26:51;;;;;;;4.97;4.47;;;;;;;15.34;43.17;95248.13;5100348;28;20195;-67
2022/10/19 09:29:23;;;;;;;4.70;3.63;;;;;;;15.49;43.30;95249.06;5118410;28;20544;-67
2022/10/19 09:31:54;;;;;;;5.25;4.15;;;;;;;15.57;43.54;95249.94;5100988;28;20200;-67
2022/10/19 09:34:23;;;;;;;6.05;4.55;;;;;;;15.63;42.86;95242.88;5118090;28;20188;-67
2022/10/19 09:36:52;;;;;;;7.38;4.20;;;;;;;15.80;42.93;95238.72;5101192;28;20196;-67
2022/10/19 09:39:19;;;;;;;5.05;4.15;;;;;;;15.89;43.43;95236.41;5100317;28;20198;-68
2022/10/19 09:41:51;;;;;;;6.28;4.20;;;;;;;15.95;41.71;95240.44;5100431;28;20203;-67
2022/10/19 09:44:18;;;;;;;6.13;3.90;;;;;;;16.01;41.21;95232.53;5099823;28;20304;-67
2022/10/19 09:46:50;;;;;;;6.13;3.72;;;;;;;16.07;42.03;95234.59;5117720;28;20630;-67
2022/10/19 09:49:18;;;;;;;4.25;3.70;;;;;;;16.20;41.51;95237.09;5118072;28;20275;-67
2022/10/19 09:51:49;;;;;;;4.38;3.90;;;;;;;16.24;40.85;95244.28;5100100;28;20207;-67
2022/10/19 09:54:34;;;;;;;5.45;4.07;;;;;;;16.28;40.16;95233.19;5099167;28;20258;-68
2022/10/19 09:57:03;;;;;;;5.63;3.70;;;;;;;16.32;40.17;95234.00;5118058;28;20199;-68
2022/10/19 09:59:33;;;;;;;4.20;3.80;;;;;;;16.39;41.00;95228.50;5100076;28;20202;-67
2022/10/19 10:02:04;;;;;;;4.65;3.63;;;;;;;16.45;39.85;95226.94;5117833;28;20199;-67
2022/10/19 10:04:31;;;;;;;3.80;3.50;;;;;;;16.43;40.05;95220.97;5100184;28;20216;-68
2022/10/19 10:06:58;;;;;;;4.18;3.78;;;;;;;16.51;39.75;95216.22;5117485;28;20176;-67
2022/10/19 10:09:26;;;;;;;4.90;4.40;;;;;;;16.61;40.30;95210.72;5117913;28;20208;-68
2022/10/19 10:11:55;;;;;;;4.63;4.15;;;;;;;16.69;41.32;95208.78;5099396;28;20607;-68
2022/10/19 10:14:26;;;;;;;4.35;3.90;;;;;;;16.80;40.72;95201.31;5099685;28;20184;-67
2022/10/19 10:16:55;;;;;;;4.75;3.78;;;;;;;16.84;39.77;95196.56;5117254;28;20593;-67
2022/10/19 10:19:21;;;;;;;4.32;3.92;;;;;;;16.86;39.99;95193.41;5099797;28;20191;-68
2022/10/19 10:21:51;;;;;;;3.92;3.40;;;;;;;17.07;39.12;95196.28;5116773;28;20200;-67
2022/10/19 10:24:20;;;;;;;4.57;3.95;;;;;;;17.14;40.24;95191.91;5099316;28;20212;-67
2022/10/19 10:26:49;;;;;;;4.05;3.60;;;;;;;17.27;38.47;95187.59;5117387;28;20199;-67
2022/10/19 10:29:20;;;;;;;3.80;3.38;;;;;;;17.39;38.01;95176.06;5117325;28;20184;-67
2022/10/19 10:31:50;;;;;;;4.25;3.60;;;;;;;17.35;39.95;95169.69;5099374;28;20202;-67
2022/10/19 10:34:22;;;;;;;6.38;4.25;;;;;;;17.35;38.55;95166.09;5116978;28;20623;-67
2022/10/19 10:36:51;;;;;;;4.75;4.25;;;;;;;17.38;38.73;95162.53;5099061;28;20641;-68
2022/10/19 10:39:19;;;;;;;4.10;3.70;;;;;;;17.37;36.71;95167.31;5117374;28;20188;-67
2022/10/19 10:41:47;;;;;;;4.25;3.67;;;;;;;17.40;37.57;95154.59;5099386;28;20188;-68
2022/10/19 10:44:18;;;;;;;4.63;4.20;;;;;;;17.39;36.89;95152.97;5099010;28;20212;-68
2022/10/19 10:46:53;;;;;;;4.95;3.85;;;;;;;17.36;37.18;95156.53;5116903;28;20187;-67
2022/10/19 10:49:23;;;;;;;3.85;3.47;;;;;;;17.33;37.32;95149.78;5116872;28;20176;-68
2022/10/19 10:51:54;;;;;;;5.05;3.97;;;;;;;17.38;36.50;95145.81;5099057;28;20199;-67
2022/10/19 10:54:22;;;;;;;4.15;3.78;;;;;;;17.47;36.55;95138.66;5116557;28;20235;-67
2022/10/19 10:57:03;;;;;;;6.50;3.45;;;;;;;17.53;35.31;95142.63;5098868;28;20188;-68
2022/10/19 10:59:33;;;;;;;4.60;3.20;;;;;;;17.58;34.45;95132.31;5098986;28;20248;-68
2022/10/19 11:02:03;;;;;;;4.20;3.50;;;;;;;17.60;34.03;95129.91;5098722;28;20206;-68
2022/10/19 11:04:33;;;;;;;4.20;3.50;;;;;;;17.55;33.38;95133.91;5098461;28;20655;-67
2022/10/19 11:07:05;;;;;;;4.93;3.30;;;;;;;17.63;33.59;95132.69;5098286;28;20639;-67
2022/10/19 11:09:35;;;;;;;5.68;3.53;;;;;;;17.71;33.91;95133.50;5098864;28;20215;-68
2022/10/19 11:12:04;;;;;;;3.67;3.22;;;;;;;17.75;33.03;95123.16;5098705;28;20195;-68
2022/10/19 11:14:37;;;;;;;3.10;2.90;;;;;;;17.86;33.34;95125.97;5098767;28;20207;-67
2022/10/19 11:17:07;;;;;;;3.78;3.22;;;;;;;17.87;33.63;95119.22;5098973;28;20187;-68
2022/10/19 11:19:36;;;;;;;3.10;2.90;;;;;;;17.95;31.95;95106.84;5098419;28;20207;-67
2022/10/19 11:22:12;;;;;;;3.35;3.05;;;;;;;17.91;31.25;95112.44;5097937;28;20207;-67
2022/10/19 11:24:45;;;;;;;4.03;3.17;;;;;;;17.89;32.08;95106.44;5098267;28;20215;-67
2022/10/19 11:27:24;;;;;;;5.13;3.35;;;;;;;17.97;31.96;95107.22;5116364;28;20203;-67
2022/10/19 11:30:02;;;;;;;3.45;3.10;;;;;;;17.96;32.14;95100.84;5098376;28;20203;-67
2022/10/19 11:32:35;;;;;;;4.65;3.10;;;;;;;18.03;32.68;95092.47;5098271;28;20283;-67
2022/10/19 11:35:17;;;;;;;6.80;3.65;;;;;;;18.00;32.62;95090.47;5115782;28;20199;-67
2022/10/19 11:37:52;;;;;;;4.43;4.03;;;;;;;18.02;32.73;95085.31;5115991;28;20199;-68
2022/10/19 11:40:23;;;;;;;4.07;3.33;;;;;;;18.06;32.15;95082.50;5115974;28;20174;-68
2022/10/19 11:42:57;;;;;;;4.40;3.60;;;;;;;18.07;32.70;95092.47;5098544;28;20203;-68